createdAt,value
2023-08-14T00:01:46.815Z,2.80
2023-08-14T00:04:50.316Z,3.20
2023-08-14T00:07:53.525Z,3.00
2023-08-14T00:10:56.457Z,3.10
2023-08-14T00:13:59.353Z,2.90
2023-08-14T00:17:02.191Z,2.90
2023-08-14T00:20:05.762Z,2.70
2023-08-14T00:23:09.170Z,3.20
2023-08-14T00:26:16.159Z,4.10
2023-08-14T00:29:18.991Z,3.20
2023-08-14T00:32:21.966Z,3.20
2023-08-14T00:35:24.889Z,2.80
2023-08-14T00:38:28.165Z,3.40
2023-08-14T00:41:32.191Z,3.20
2023-08-14T00:44:35.095Z,3.20
2023-08-14T00:47:38.854Z,3.00
2023-08-14T00:50:43.900Z,2.90
2023-08-14T00:53:47.170Z,2.80
2023-08-14T00:56:50.448Z,3.30
2023-08-14T00:59:53.530Z,3.20
2023-08-14T01:02:57.102Z,3.10
2023-08-14T01:06:00.673Z,2.80
2023-08-14T01:09:03.659Z,3.10
2023-08-14T01:12:16.393Z,3.70
2023-08-14T01:15:30.081Z,3.40
2023-08-14T01:18:35.070Z,3.40
2023-08-14T01:21:52.388Z,3.90
2023-08-14T01:25:28.403Z,3.40
2023-08-14T01:28:32.105Z,3.00
2023-08-14T01:31:35.034Z,3.40
2023-08-14T01:34:38.048Z,3.40
2023-08-14T01:37:56.038Z,3.60
2023-08-14T01:41:56.575Z,3.70
2023-08-14T01:45:03.449Z,3.00
2023-08-14T01:48:12.721Z,3.10
2023-08-14T01:51:17.764Z,3.40
2023-08-14T01:54:21.344Z,3.10
2023-08-14T01:57:24.202Z,2.80
2023-08-14T02:00:27.959Z,3.30
2023-08-14T02:03:31.468Z,3.40
2023-08-14T02:06:34.866Z,3.20
2023-08-14T02:09:38.234Z,3.30
2023-08-14T02:12:41.176Z,3.20
2023-08-14T02:15:47.482Z,3.50
2023-08-14T02:18:50.544Z,3.20
2023-08-14T02:21:53.649Z,3.20
2023-08-14T02:24:56.560Z,3.40
2023-08-14T02:27:59.452Z,3.10
2023-08-14T02:31:04.248Z,3.50
2023-08-14T02:34:07.281Z,3.20
2023-08-14T02:37:10.824Z,3.70
2023-08-14T02:40:13.739Z,3.60
2023-08-14T02:43:16.737Z,3.50
2023-08-14T02:46:19.654Z,3.20
2023-08-14T02:49:22.796Z,3.00
2023-08-14T02:52:25.607Z,3.40
2023-08-14T02:55:28.561Z,3.30
2023-08-14T02:58:32.687Z,3.40
2023-08-14T03:01:35.655Z,3.80
2023-08-14T03:04:38.583Z,2.90
2023-08-14T03:07:41.534Z,3.70
2023-08-14T03:10:44.445Z,3.70
2023-08-14T03:13:47.401Z,3.60
2023-08-14T03:16:50.516Z,3.60
2023-08-14T03:19:53.591Z,3.20
2023-08-14T03:22:56.537Z,3.40
2023-08-14T03:25:59.475Z,3.30
2023-08-14T03:29:02.418Z,3.40
2023-08-14T03:32:05.645Z,3.90
2023-08-14T03:35:08.669Z,3.40
2023-08-14T03:38:11.515Z,4.00
2023-08-14T03:41:14.480Z,3.60
2023-08-14T03:44:17.404Z,3.30
2023-08-14T03:47:20.407Z,3.60
2023-08-14T03:50:23.587Z,4.00
2023-08-14T03:53:26.522Z,3.30
2023-08-14T03:56:29.784Z,3.30
2023-08-14T03:59:32.757Z,4.00
2023-08-14T04:02:35.699Z,3.40
2023-08-14T04:05:42.257Z,3.20
2023-08-14T04:08:45.123Z,3.40
2023-08-14T04:11:48.066Z,3.00
2023-08-14T04:14:51.519Z,3.30
2023-08-14T04:17:54.553Z,3.20
2023-08-14T04:20:58.362Z,3.10
2023-08-14T04:24:01.201Z,3.10
2023-08-14T04:27:04.343Z,3.00
2023-08-14T04:30:07.691Z,3.50
2023-08-14T04:33:10.654Z,3.10
2023-08-14T04:36:13.640Z,3.30
2023-08-14T04:39:16.730Z,2.70
2023-08-14T04:42:19.848Z,2.80
2023-08-14T04:45:23.215Z,2.60
2023-08-14T04:48:26.171Z,2.70
2023-08-14T04:51:29.517Z,2.50
2023-08-14T04:54:33.299Z,2.70
2023-08-14T04:57:36.214Z,2.70
2023-08-14T05:00:39.854Z,2.60
2023-08-14T05:03:42.754Z,2.60
2023-08-14T05:06:46.092Z,2.70
2023-08-14T05:09:49.663Z,2.90
2023-08-14T05:12:52.717Z,2.60
2023-08-14T05:16:07.064Z,2.70
2023-08-14T05:19:11.061Z,2.50
2023-08-14T05:22:13.995Z,2.60
2023-08-14T05:25:16.820Z,2.70
2023-08-14T05:28:19.794Z,2.30
2023-08-14T05:31:22.732Z,2.60
2023-08-14T05:34:25.586Z,3.00
2023-08-14T05:37:28.461Z,2.80
2023-08-14T05:40:31.377Z,2.70
2023-08-14T05:43:34.269Z,2.40
2023-08-14T05:46:37.147Z,2.80
2023-08-14T05:49:40.243Z,2.40
2023-08-14T05:52:44.354Z,2.40
2023-08-14T05:55:47.297Z,2.30
2023-08-14T05:58:50.196Z,2.10
2023-08-14T06:01:55.638Z,2.40
2023-08-14T06:05:00.471Z,2.60
2023-08-14T06:08:05.087Z,2.90
2023-08-14T06:11:08.014Z,2.30
2023-08-14T06:14:10.892Z,2.00
2023-08-14T06:17:13.799Z,2.20
2023-08-14T06:20:16.781Z,2.00
2023-08-14T06:23:20.383Z,2.40
2023-08-14T06:26:23.534Z,2.30
2023-08-14T06:29:26.387Z,2.20
2023-08-14T06:32:29.321Z,2.30
2023-08-14T06:35:32.211Z,2.00
2023-08-14T06:38:35.491Z,2.60
2023-08-14T06:41:38.405Z,2.20
2023-08-14T06:44:41.343Z,2.10
2023-08-14T06:47:46.307Z,2.50
2023-08-14T06:50:49.332Z,2.40
2023-08-14T06:53:54.019Z,2.20
2023-08-14T06:56:58.583Z,2.70
2023-08-14T07:00:07.306Z,2.20
2023-08-14T07:03:10.364Z,2.10
2023-08-14T07:06:13.336Z,2.50
2023-08-14T07:09:17.986Z,2.20
2023-08-14T07:12:21.165Z,2.50
2023-08-14T07:15:24.338Z,2.50
2023-08-14T07:18:27.158Z,2.10
2023-08-14T07:21:30.176Z,2.20
2023-08-14T07:24:33.125Z,2.00
2023-08-14T07:27:35.979Z,2.30
2023-08-14T07:30:40.007Z,2.00
2023-08-14T07:33:42.882Z,2.20
2023-08-14T07:36:45.734Z,2.00
2023-08-14T07:39:48.807Z,2.00
2023-08-14T07:42:51.767Z,2.70
2023-08-14T07:45:55.609Z,2.40
2023-08-14T07:48:58.644Z,1.90
2023-08-14T07:52:01.622Z,2.60
2023-08-14T07:55:05.021Z,2.20
2023-08-14T07:58:07.898Z,2.10
2023-08-14T08:01:11.191Z,3.10
2023-08-14T08:04:26.500Z,2.40
2023-08-14T08:10:36.916Z,2.50
2023-08-14T08:13:40.078Z,2.20
2023-08-14T08:16:42.885Z,3.90
2023-08-14T08:19:47.773Z,2.20
2023-08-14T08:22:51.195Z,2.20
2023-08-14T08:25:54.216Z,2.80
2023-08-14T08:28:57.197Z,2.30
2023-08-14T08:32:00.119Z,2.30
2023-08-14T08:35:03.092Z,5.70
2023-08-14T08:38:06.159Z,2.90
2023-08-14T08:41:09.200Z,2.30
2023-08-14T08:44:22.705Z,2.60
2023-08-14T08:47:30.452Z,3.00
2023-08-14T08:50:34.341Z,3.00
2023-08-14T08:53:37.460Z,2.90
2023-08-14T08:56:41.595Z,3.20
2023-08-14T08:59:44.942Z,2.50
2023-08-14T09:02:47.784Z,2.80
2023-08-14T09:05:52.621Z,2.40
2023-08-14T09:11:58.158Z,2.70
2023-08-14T09:15:09.527Z,2.40
2023-08-14T09:18:12.392Z,2.40
2023-08-14T09:21:16.702Z,2.40
2023-08-14T09:24:20.186Z,2.50
2023-08-14T09:27:24.409Z,2.70
2023-08-14T09:30:28.010Z,3.10
2023-08-14T09:33:30.975Z,2.40
2023-08-14T09:36:37.728Z,2.70
2023-08-14T09:39:40.713Z,2.30
2023-08-14T09:42:45.481Z,2.40
2023-08-14T09:45:48.551Z,2.50
2023-08-14T09:48:51.544Z,2.50
2023-08-14T09:51:58.765Z,2.20
2023-08-14T09:55:10.896Z,2.50
2023-08-14T09:58:14.688Z,2.60
2023-08-14T10:01:19.545Z,2.60
2023-08-14T10:07:27.625Z,2.30
2023-08-14T10:10:32.348Z,2.50
2023-08-14T10:13:43.231Z,2.50
2023-08-14T10:16:49.740Z,2.70
2023-08-14T10:19:54.707Z,2.00
2023-08-14T10:22:58.703Z,2.10
2023-08-14T10:26:02.525Z,2.30
2023-08-14T10:29:06.901Z,2.30
2023-08-14T10:32:10.664Z,2.30
2023-08-14T10:35:13.669Z,2.40
2023-08-14T10:38:18.273Z,2.40
2023-08-14T10:41:34.389Z,2.60
2023-08-14T10:44:37.441Z,2.40
2023-08-14T10:47:40.451Z,2.30
2023-08-14T10:50:43.369Z,2.40
2023-08-14T10:53:46.619Z,2.80
2023-08-14T10:57:00.485Z,2.70
2023-08-14T11:00:04.595Z,2.40
2023-08-14T11:03:09.670Z,2.60
2023-08-14T11:06:22.974Z,2.70
2023-08-14T11:09:33.728Z,2.30
2023-08-14T11:12:37.231Z,2.80
2023-08-14T11:15:41.199Z,2.50
2023-08-14T11:18:44.368Z,2.50
2023-08-14T11:21:49.543Z,2.40
2023-08-14T11:24:53.148Z,2.80
2023-08-14T11:27:56.969Z,2.70
2023-08-14T11:30:59.855Z,2.60
2023-08-14T11:34:03.032Z,2.30
2023-08-14T11:37:07.833Z,2.60
2023-08-14T11:40:14.304Z,2.30
2023-08-14T11:43:17.256Z,2.50
2023-08-14T11:46:20.376Z,2.30
2023-08-14T11:49:24.344Z,2.20
2023-08-14T11:52:28.181Z,2.90
2023-08-14T11:55:31.232Z,2.60
2023-08-14T11:58:38.191Z,2.10
2023-08-14T12:01:42.618Z,2.60
2023-08-14T12:04:45.612Z,2.30
2023-08-14T12:07:48.556Z,2.60
2023-08-14T12:10:51.452Z,2.60
2023-08-14T12:13:54.384Z,2.50
2023-08-14T12:16:58.875Z,3.10
2023-08-14T12:20:06.857Z,2.70
2023-08-14T12:23:14.457Z,2.40
2023-08-14T12:26:17.333Z,2.30
2023-08-14T12:29:22.096Z,2.90
2023-08-14T12:32:25.676Z,2.30
2023-08-14T12:35:28.661Z,2.40
2023-08-14T12:38:31.511Z,2.70
2023-08-14T12:41:34.498Z,2.50
2023-08-14T12:44:37.410Z,2.60
2023-08-14T12:47:40.359Z,3.20
2023-08-14T12:50:43.368Z,2.60
2023-08-14T12:53:46.170Z,2.60
2023-08-14T12:56:49.141Z,3.10
2023-08-14T12:59:52.040Z,2.50
2023-08-14T13:02:54.882Z,2.70
2023-08-14T13:05:58.273Z,2.50
2023-08-14T13:09:02.950Z,2.80
2023-08-14T13:12:06.632Z,2.60
2023-08-14T13:15:09.587Z,2.80
2023-08-14T13:18:12.373Z,2.60
2023-08-14T13:21:15.328Z,2.50
2023-08-14T13:24:18.203Z,2.60
2023-08-14T13:27:21.481Z,2.80
2023-08-14T13:30:24.600Z,2.70
2023-08-14T13:33:27.462Z,2.70
2023-08-14T13:36:30.437Z,2.50
2023-08-14T13:39:33.477Z,2.20
2023-08-14T13:42:36.319Z,2.30
2023-08-14T13:45:39.102Z,2.90
2023-08-14T13:48:42.174Z,2.70
2023-08-14T13:51:46.055Z,2.50
2023-08-14T13:54:51.289Z,2.50
2023-08-14T13:57:56.829Z,3.20
2023-08-14T14:01:02.943Z,2.70
2023-08-14T14:04:06.987Z,2.50
2023-08-14T14:07:12.474Z,2.60
2023-08-14T14:10:15.518Z,2.60
2023-08-14T14:13:18.647Z,2.40
2023-08-14T14:16:23.471Z,2.50
2023-08-14T14:19:27.690Z,2.70
2023-08-14T14:22:30.638Z,2.10
2023-08-14T14:25:33.484Z,2.70
2023-08-14T14:28:36.349Z,2.80
2023-08-14T14:31:39.275Z,2.40
2023-08-14T14:34:42.294Z,2.70
2023-08-14T14:37:46.788Z,2.60
2023-08-14T14:40:49.650Z,3.20
2023-08-14T14:43:52.524Z,2.60
2023-08-14T14:46:55.732Z,2.70
2023-08-14T14:49:58.709Z,2.30
2023-08-14T14:53:01.564Z,2.30
2023-08-14T14:56:06.059Z,2.40
2023-08-14T14:59:08.892Z,2.30
2023-08-14T15:02:23.573Z,2.50
2023-08-14T15:05:32.079Z,2.70
2023-08-14T15:08:34.931Z,2.70
2023-08-14T15:11:37.885Z,2.30
2023-08-14T15:14:40.816Z,2.40
2023-08-14T15:17:44.863Z,3.00
2023-08-14T15:20:47.907Z,3.00
2023-08-14T15:23:50.747Z,3.10
2023-08-14T15:26:53.520Z,2.70
2023-08-14T15:29:56.429Z,2.30
2023-08-14T15:32:59.261Z,2.70
2023-08-14T15:36:02.192Z,2.30
2023-08-14T15:39:05.370Z,2.50
2023-08-14T15:42:08.276Z,2.40
2023-08-14T15:45:14.288Z,3.10
2023-08-14T15:48:17.631Z,2.60
2023-08-14T15:51:20.914Z,2.90
2023-08-14T15:54:23.733Z,2.40
2023-08-14T15:57:27.239Z,2.40
2023-08-14T16:00:30.111Z,2.70
2023-08-14T16:03:32.996Z,3.00
2023-08-14T16:06:35.869Z,3.50
2023-08-14T16:09:39.126Z,3.40
2023-08-14T16:12:42.028Z,3.40
2023-08-14T16:15:44.858Z,2.90
2023-08-14T16:18:47.717Z,3.80
2023-08-14T16:21:50.494Z,3.20
2023-08-14T16:24:53.334Z,3.60
2023-08-14T16:27:56.182Z,3.30
2023-08-14T16:30:59.164Z,3.60
2023-08-14T16:34:02.490Z,2.90
2023-08-14T16:37:05.529Z,3.00
2023-08-14T16:40:09.243Z,3.40
2023-08-14T16:43:12.975Z,3.10
2023-08-14T16:46:15.898Z,3.70
2023-08-14T16:49:18.776Z,3.20
2023-08-14T16:52:21.610Z,3.30
2023-08-14T16:55:24.754Z,3.20
2023-08-14T16:58:27.669Z,4.20
2023-08-14T17:01:30.487Z,3.50
2023-08-14T17:04:34.096Z,3.80
2023-08-14T17:07:37.049Z,4.70
2023-08-14T17:10:40.054Z,3.70
2023-08-14T17:13:43.055Z,3.30
2023-08-14T17:16:45.985Z,3.50
2023-08-14T17:19:48.836Z,3.30
2023-08-14T17:22:51.683Z,3.10
2023-08-14T17:25:55.256Z,3.30
2023-08-14T17:28:58.190Z,3.00
2023-08-14T17:32:01.166Z,3.20
2023-08-14T17:35:04.297Z,3.30
2023-08-14T17:38:07.126Z,3.10
2023-08-14T17:41:11.758Z,3.10
2023-08-14T17:44:14.886Z,3.10
2023-08-14T17:47:18.108Z,3.40
2023-08-14T17:50:21.327Z,3.70
2023-08-14T17:53:25.760Z,3.30
2023-08-14T17:56:28.999Z,4.10
2023-08-14T17:59:32.503Z,4.00
2023-08-14T18:02:35.618Z,4.70
2023-08-14T18:05:38.568Z,5.00
2023-08-14T18:08:41.481Z,5.40
2023-08-14T18:11:44.520Z,4.70
2023-08-14T18:14:47.810Z,5.30
2023-08-14T18:17:50.797Z,4.60
2023-08-14T18:20:54.002Z,4.60
2023-08-14T18:23:57.076Z,5.80
2023-08-14T18:27:00.039Z,5.00
2023-08-14T18:30:03.135Z,5.70
2023-08-14T18:33:06.151Z,6.20
2023-08-14T18:36:09.127Z,10.70
2023-08-14T18:39:11.993Z,8.60
2023-08-14T18:42:14.864Z,6.90
2023-08-14T18:45:17.811Z,5.80
2023-08-14T18:48:20.684Z,5.10
2023-08-14T18:51:23.665Z,4.80
2023-08-14T18:54:27.306Z,4.60
2023-08-14T18:57:30.196Z,6.00
2023-08-14T19:00:33.149Z,6.20
2023-08-14T19:03:36.084Z,5.80
2023-08-14T19:06:39.210Z,6.30
2023-08-14T19:09:48.525Z,7.60
2023-08-14T19:13:14.177Z,6.70
2023-08-14T19:16:17.242Z,5.80
2023-08-14T19:19:20.146Z,6.20
2023-08-14T19:22:23.895Z,6.60
2023-08-14T19:25:30.036Z,6.90
2023-08-14T19:28:50.105Z,7.00
2023-08-14T19:32:01.905Z,6.30
2023-08-14T19:35:05.951Z,5.90
2023-08-14T19:38:08.899Z,6.20
2023-08-14T19:41:11.853Z,5.50
2023-08-14T19:44:15.909Z,6.00
2023-08-14T19:47:19.044Z,6.10
2023-08-14T19:50:25.212Z,5.40
2023-08-14T19:53:28.208Z,5.40
2023-08-14T19:56:31.250Z,6.10
2023-08-14T19:59:34.225Z,5.40
2023-08-14T20:02:37.182Z,6.40
2023-08-14T20:05:46.020Z,6.10
2023-08-14T20:08:49.139Z,5.60
2023-08-14T20:11:52.038Z,5.70
2023-08-14T20:14:55.957Z,4.50
2023-08-14T20:17:58.935Z,5.60
2023-08-14T20:21:01.992Z,5.80
2023-08-14T20:24:05.551Z,5.30
2023-08-14T20:27:09.101Z,5.50
2023-08-14T20:30:12.733Z,5.50
2023-08-14T20:33:16.134Z,5.20
2023-08-14T20:36:23.319Z,4.70
2023-08-14T20:39:28.886Z,5.20
2023-08-14T20:42:32.018Z,4.80
2023-08-14T20:45:37.804Z,5.10
2023-08-14T20:48:40.982Z,5.30
2023-08-14T20:51:44.029Z,5.20
2023-08-14T20:54:46.986Z,5.10
2023-08-14T20:57:49.941Z,4.90
2023-08-14T21:00:53.240Z,5.90
2023-08-14T21:03:56.296Z,4.80
2023-08-14T21:06:59.392Z,5.00
2023-08-14T21:10:02.481Z,5.00
2023-08-14T21:13:05.843Z,5.10
2023-08-14T21:16:09.154Z,4.80
2023-08-14T21:19:12.960Z,5.20
2023-08-14T21:22:16.367Z,4.80
2023-08-14T21:25:19.480Z,4.90
2023-08-14T21:28:22.613Z,4.80
2023-08-14T21:31:25.712Z,5.40
2023-08-14T21:34:30.600Z,5.90
2023-08-14T21:37:34.020Z,4.70
2023-08-14T21:40:40.328Z,4.10
2023-08-14T21:43:43.443Z,4.60
2023-08-14T21:46:46.415Z,4.60
2023-08-14T21:49:49.549Z,4.90
2023-08-14T21:52:52.476Z,4.50
2023-08-14T21:55:55.367Z,5.30
2023-08-14T21:58:58.408Z,5.50
2023-08-14T22:02:01.350Z,4.70
2023-08-14T22:05:04.651Z,5.80
2023-08-14T22:08:07.646Z,5.40
2023-08-14T22:11:11.255Z,5.00
2023-08-14T22:14:14.180Z,5.40
2023-08-14T22:17:17.341Z,5.50
2023-08-14T22:20:20.537Z,4.60
2023-08-14T22:23:23.457Z,5.40
2023-08-14T22:26:26.350Z,5.70
2023-08-14T22:29:29.219Z,5.90
2023-08-14T22:32:32.369Z,5.40
2023-08-14T22:35:35.267Z,5.40
2023-08-14T22:38:39.022Z,4.40
2023-08-14T22:41:41.922Z,4.80
2023-08-14T22:44:44.913Z,4.30
2023-08-14T22:47:50.415Z,4.90
2023-08-14T22:50:54.895Z,5.00
2023-08-14T22:53:58.396Z,4.60
2023-08-14T22:57:03.618Z,4.60
2023-08-14T23:00:10.063Z,4.60
2023-08-14T23:03:13.110Z,4.70
2023-08-14T23:06:16.203Z,4.50
2023-08-14T23:09:19.588Z,4.40
2023-08-14T23:12:22.592Z,4.70
2023-08-14T23:15:25.544Z,4.30
2023-08-14T23:18:28.655Z,4.10
2023-08-14T23:21:31.563Z,5.20
2023-08-14T23:24:34.450Z,4.20
2023-08-14T23:27:38.228Z,3.80
2023-08-14T23:30:41.669Z,4.00
2023-08-14T23:33:45.053Z,4.10
2023-08-14T23:36:48.276Z,4.40
2023-08-14T23:39:51.152Z,4.20
2023-08-14T23:42:54.055Z,4.30
2023-08-14T23:45:56.949Z,4.40
2023-08-14T23:48:59.905Z,4.20
2023-08-14T23:52:03.375Z,4.00
2023-08-14T23:55:07.074Z,4.80
2023-08-14T23:58:10.197Z,5.30
